createdAt,value
2019-01-27T00:02:23.607Z,7.70
2019-01-27T00:05:18.460Z,7.70
2019-01-27T00:07:54.803Z,7.80
2019-01-27T00:10:48.229Z,7.70
2019-01-27T00:13:51.621Z,7.80
2019-01-27T00:16:29.826Z,7.80
2019-01-27T00:19:05.642Z,7.80
2019-01-27T00:21:53.724Z,7.80
2019-01-27T00:24:29.566Z,7.80
2019-01-27T00:27:06.910Z,7.80
2019-01-27T00:29:38.642Z,7.80
2019-01-27T00:32:09.727Z,7.80
2019-01-27T00:34:47.198Z,7.90
2019-01-27T00:37:20.447Z,7.80
2019-01-27T00:40:10.391Z,7.80
2019-01-27T00:42:45.885Z,7.80
2019-01-27T00:45:17.840Z,7.80
2019-01-27T00:47:52.351Z,7.90
2019-01-27T00:50:30.201Z,7.90
2019-01-27T00:53:06.176Z,7.90
2019-01-27T00:58:46.822Z,7.80
2019-01-27T01:01:21.909Z,7.80
2019-01-27T01:03:56.893Z,7.60
2019-01-27T01:06:27.376Z,7.50
2019-01-27T01:08:57.994Z,7.30
2019-01-27T01:11:30.659Z,7.30
2019-01-27T01:14:02.255Z,7.10
2019-01-27T01:16:34.580Z,7.10
2019-01-27T01:19:08.072Z,7.10
2019-01-27T01:21:39.894Z,7.10
2019-01-27T01:24:20.121Z,7.00
2019-01-27T01:26:55.289Z,7.00
2019-01-27T01:29:30.435Z,6.90
2019-01-27T01:32:12.439Z,6.90
2019-01-27T01:34:48.675Z,6.90
2019-01-27T01:37:18.888Z,6.90
2019-01-27T01:39:54.649Z,6.90
2019-01-27T01:42:32.913Z,6.80
2019-01-27T01:45:23.263Z,6.80
2019-01-27T01:48:07.779Z,6.80
2019-01-27T01:50:47.147Z,6.80
2019-01-27T01:53:19.922Z,6.80
2019-01-27T01:55:51.496Z,6.80
2019-01-27T01:58:22.490Z,6.90
2019-01-27T02:00:58.354Z,6.80
2019-01-27T02:03:30.361Z,6.80
2019-01-27T02:06:05.451Z,6.80
2019-01-27T02:08:41.200Z,6.80
2019-01-27T02:11:13.536Z,6.70
2019-01-27T02:13:47.245Z,6.80
2019-01-27T02:16:19.429Z,6.80
2019-01-27T02:18:50.329Z,6.70
2019-01-27T02:21:33.479Z,6.80
2019-01-27T02:24:07.384Z,6.70
2019-01-27T02:26:42.778Z,6.80
2019-01-27T02:29:13.618Z,6.70
2019-01-27T02:31:44.929Z,6.80
2019-01-27T02:34:15.173Z,6.80
2019-01-27T02:36:46.949Z,6.80
2019-01-27T02:39:17.522Z,6.80
2019-01-27T02:41:51.034Z,6.80
2019-01-27T02:44:28.145Z,6.90
2019-01-27T02:46:59.250Z,6.90
2019-01-27T02:49:32.461Z,6.90
2019-01-27T02:52:02.900Z,7.00
2019-01-27T02:54:35.233Z,7.00
2019-01-27T02:57:05.885Z,7.00
2019-01-27T02:59:37.575Z,7.10
2019-01-27T03:02:08.172Z,7.10
2019-01-27T03:04:38.488Z,7.10
2019-01-27T03:07:36.214Z,7.10
2019-01-27T03:10:10.740Z,7.10
2019-01-27T03:12:42.319Z,7.10
2019-01-27T03:15:19.130Z,7.10
2019-01-27T03:17:50.353Z,7.10
2019-01-27T03:20:20.686Z,7.10
2019-01-27T03:22:50.692Z,7.20
2019-01-27T03:25:20.749Z,7.20
2019-01-27T03:27:54.341Z,7.20
2019-01-27T03:30:26.986Z,7.30
2019-01-27T03:33:01.960Z,7.40
2019-01-27T03:35:32.489Z,7.30
2019-01-27T03:38:02.971Z,7.40
2019-01-27T03:40:33.320Z,7.30
2019-01-27T03:43:08.137Z,7.40
2019-01-27T03:45:45.204Z,7.40
2019-01-27T03:48:17.113Z,7.40
2019-01-27T03:50:48.725Z,7.40
2019-01-27T03:53:22.043Z,7.40
2019-01-27T03:55:54.242Z,7.40
2019-01-27T03:58:25.072Z,7.30
2019-01-27T04:00:55.277Z,7.40
2019-01-27T04:03:25.409Z,7.40
2019-01-27T04:05:55.566Z,7.40
2019-01-27T04:08:25.729Z,7.30
2019-01-27T04:10:55.856Z,7.30
2019-01-27T04:13:26.286Z,7.40
2019-01-27T04:15:56.932Z,7.30
2019-01-27T04:18:28.019Z,7.40
2019-01-27T04:20:58.529Z,7.40
2019-01-27T04:23:28.632Z,7.30
2019-01-27T04:25:59.317Z,7.30
2019-01-27T04:28:33.773Z,7.30
2019-01-27T04:31:04.809Z,7.30
2019-01-27T04:33:34.968Z,7.30
2019-01-27T04:36:05.544Z,7.30
2019-01-27T04:38:35.505Z,7.30
2019-01-27T04:41:05.559Z,7.30
2019-01-27T04:43:35.550Z,7.30
2019-01-27T04:46:05.825Z,7.30
2019-01-27T04:48:35.909Z,7.30
2019-01-27T04:51:08.462Z,7.30
2019-01-27T04:53:38.699Z,7.30
2019-01-27T04:56:08.706Z,7.30
2019-01-27T04:58:38.684Z,7.30
2019-01-27T05:01:08.967Z,7.30
2019-01-27T05:03:53.475Z,7.30
2019-01-27T05:06:26.749Z,7.30
2019-01-27T05:08:56.877Z,7.30
2019-01-27T05:11:27.631Z,7.30
2019-01-27T05:13:58.919Z,7.30
2019-01-27T05:16:29.574Z,7.30
2019-01-27T05:18:59.702Z,7.30
2019-01-27T05:21:29.751Z,7.30
2019-01-27T05:23:59.869Z,7.20
2019-01-27T05:26:30.340Z,7.00
2019-01-27T05:29:00.389Z,7.00
2019-01-27T05:31:30.664Z,7.00
2019-01-27T05:34:01.953Z,6.90
2019-01-27T05:36:32.351Z,6.90
2019-01-27T05:39:02.662Z,6.90
2019-01-27T05:41:32.823Z,6.90
2019-01-27T05:44:03.074Z,6.90
2019-01-27T05:46:33.248Z,6.90
2019-01-27T05:49:03.700Z,6.90
2019-01-27T05:51:33.905Z,6.90
2019-01-27T05:54:04.364Z,6.90
2019-01-27T05:56:34.284Z,7.00
2019-01-27T05:59:04.612Z,7.00
2019-01-27T06:01:34.834Z,7.00
2019-01-27T06:04:06.595Z,7.00
2019-01-27T06:06:36.629Z,7.00
2019-01-27T06:09:09.281Z,7.00
2019-01-27T06:11:39.543Z,7.00
2019-01-27T06:14:09.656Z,7.00
2019-01-27T06:16:39.690Z,7.00
2019-01-27T06:19:09.869Z,7.00
2019-01-27T06:21:40.175Z,7.00
2019-01-27T06:24:10.706Z,7.00
2019-01-27T06:26:40.947Z,7.00
2019-01-27T06:29:10.981Z,7.00
2019-01-27T06:31:40.980Z,6.90
2019-01-27T06:34:14.553Z,6.80
2019-01-27T06:36:44.760Z,6.80
2019-01-27T06:39:14.772Z,6.80
2019-01-27T06:41:47.485Z,6.80
2019-01-27T06:44:23.582Z,6.80
2019-01-27T06:46:58.124Z,6.80
2019-01-27T06:49:28.350Z,6.80
2019-01-27T06:51:58.460Z,6.80
2019-01-27T06:54:28.593Z,6.80
2019-01-27T06:56:59.568Z,6.80
2019-01-27T06:59:48.788Z,6.80
2019-01-27T07:02:49.690Z,6.80
2019-01-27T07:05:35.261Z,6.80
2019-01-27T07:08:28.968Z,6.90
2019-01-27T07:11:16.609Z,6.90
2019-01-27T07:14:03.881Z,6.90
2019-01-27T07:17:07.786Z,7.00
2019-01-27T07:19:55.062Z,7.00
2019-01-27T07:22:40.075Z,7.10
2019-01-27T07:25:29.443Z,7.10
2019-01-27T07:28:16.526Z,7.10
2019-01-27T07:31:10.856Z,7.10
2019-01-27T07:34:00.844Z,7.10
2019-01-27T07:36:48.292Z,7.10
2019-01-27T07:39:49.352Z,7.10
2019-01-27T07:42:30.281Z,7.10
2019-01-27T07:45:19.244Z,7.10
2019-01-27T07:47:54.232Z,7.10
2019-01-27T07:50:58.046Z,7.10
2019-01-27T07:53:38.926Z,7.20
2019-01-27T07:56:36.777Z,7.20
2019-01-27T07:59:13.262Z,7.20
2019-01-27T08:01:51.320Z,7.30
2019-01-27T08:04:43.333Z,7.30
2019-01-27T08:07:30.943Z,7.40
2019-01-27T08:10:18.430Z,7.40
2019-01-27T08:13:09.581Z,7.50
2019-01-27T08:15:55.168Z,7.50
2019-01-27T08:18:50.110Z,7.60
2019-01-27T08:21:51.457Z,7.60
2019-01-27T08:24:38.747Z,7.60
2019-01-27T08:27:19.237Z,7.70
2019-01-27T08:30:15.260Z,7.70
2019-01-27T08:33:09.005Z,7.80
2019-01-27T08:36:10.877Z,7.90
2019-01-27T08:39:10.272Z,8.10
2019-01-27T08:41:59.002Z,8.20
2019-01-27T08:44:54.199Z,8.40
2019-01-27T08:47:26.388Z,8.50
2019-01-27T08:50:07.138Z,8.60
2019-01-27T08:52:39.366Z,8.70
2019-01-27T08:55:15.075Z,8.60
2019-01-27T08:57:47.249Z,8.60
2019-01-27T09:00:21.671Z,8.50
2019-01-27T09:03:13.188Z,8.50
2019-01-27T09:06:04.249Z,8.50
2019-01-27T09:08:47.812Z,8.40
2019-01-27T09:11:38.393Z,8.40
2019-01-27T09:14:26.665Z,8.40
2019-01-27T09:17:20.384Z,8.40
2019-01-27T09:20:06.780Z,8.30
2019-01-27T09:22:59.451Z,8.30
2019-01-27T09:25:51.005Z,8.30
2019-01-27T09:28:53.313Z,8.30
2019-01-27T09:31:51.651Z,8.30
2019-01-27T09:34:44.931Z,8.20
2019-01-27T09:37:33.090Z,8.20
2019-01-27T09:40:29.940Z,8.20
2019-01-27T09:43:25.868Z,8.20
2019-01-27T09:46:11.443Z,8.30
2019-01-27T09:48:53.683Z,8.20
2019-01-27T09:51:43.572Z,8.20
2019-01-27T09:54:33.969Z,8.20
2019-01-27T09:57:21.265Z,8.20
2019-01-27T10:00:20.656Z,8.30
2019-01-27T10:03:07.252Z,8.20
2019-01-27T10:05:55.386Z,8.30
2019-01-27T10:09:05.636Z,8.40
2019-01-27T10:12:01.246Z,8.40
2019-01-27T10:14:52.039Z,8.40
2019-01-27T10:17:47.479Z,8.40
2019-01-27T10:20:42.057Z,8.40
2019-01-27T10:23:22.714Z,8.50
2019-01-27T10:26:10.820Z,8.60
2019-01-27T10:28:51.546Z,8.70
2019-01-27T10:31:31.447Z,8.70
2019-01-27T10:34:14.037Z,8.60
2019-01-27T10:36:53.752Z,8.40
2019-01-27T10:39:30.261Z,8.20
2019-01-27T10:42:13.419Z,8.20
2019-01-27T10:45:13.575Z,8.20
2019-01-27T10:48:12.431Z,8.20
2019-01-27T10:51:00.237Z,8.20
2019-01-27T10:53:53.710Z,8.20
2019-01-27T10:56:46.389Z,8.20
2019-01-27T10:59:35.556Z,8.30
2019-01-27T11:02:25.767Z,8.30
2019-01-27T11:05:18.352Z,8.60
2019-01-27T11:08:27.131Z,8.60
2019-01-27T11:11:13.486Z,8.60
2019-01-27T11:14:03.711Z,8.60
2019-01-27T11:16:55.998Z,8.70
2019-01-27T11:19:52.388Z,8.80
2019-01-27T11:22:49.978Z,8.70
2019-01-27T11:25:40.264Z,8.90
2019-01-27T11:28:29.675Z,9.00
2019-01-27T11:31:19.401Z,9.10
2019-01-27T11:34:29.350Z,9.10
2019-01-27T11:37:18.482Z,9.00
2019-01-27T11:40:22.504Z,9.00
2019-01-27T11:43:11.280Z,8.90
2019-01-27T11:45:49.727Z,8.90
2019-01-27T11:48:45.236Z,8.90
2019-01-27T11:51:24.698Z,8.80
2019-01-27T11:53:57.789Z,8.80
2019-01-27T11:56:28.448Z,8.90
2019-01-27T11:58:59.817Z,8.80
2019-01-27T12:01:32.423Z,8.80
2019-01-27T12:04:03.060Z,8.70
2019-01-27T12:06:33.878Z,8.80
2019-01-27T12:09:09.432Z,8.90
2019-01-27T12:11:40.219Z,8.90
2019-01-27T12:14:11.390Z,8.90
2019-01-27T12:16:44.932Z,8.70
2019-01-27T12:19:21.834Z,8.50
2019-01-27T12:21:55.589Z,8.30
2019-01-27T12:24:31.883Z,8.30
2019-01-27T12:27:24.118Z,8.30
2019-01-27T12:30:06.397Z,8.50
2019-01-27T12:32:54.322Z,8.50
2019-01-27T12:35:26.169Z,8.30
2019-01-27T12:37:59.375Z,8.20
2019-01-27T12:40:35.314Z,8.30
2019-01-27T12:43:10.559Z,8.30
2019-01-27T12:45:46.015Z,8.50
2019-01-27T12:48:22.212Z,8.80
2019-01-27T12:50:58.888Z,9.00
2019-01-27T12:53:32.757Z,9.00
2019-01-27T12:56:03.717Z,9.20
2019-01-27T12:58:34.045Z,9.10
2019-01-27T13:01:12.031Z,9.10
2019-01-27T13:03:46.315Z,9.20
2019-01-27T13:06:20.741Z,9.20
2019-01-27T13:08:52.697Z,9.00
2019-01-27T13:11:40.492Z,9.00
2019-01-27T13:14:27.631Z,9.00
2019-01-27T13:17:16.558Z,8.90
2019-01-27T13:19:54.796Z,8.90
2019-01-27T13:22:38.114Z,8.90
2019-01-27T13:25:10.670Z,9.00
2019-01-27T13:27:45.301Z,9.10
2019-01-27T13:30:23.609Z,9.10
2019-01-27T13:33:07.510Z,9.10
2019-01-27T13:35:46.602Z,9.20
2019-01-27T13:38:23.015Z,9.30
2019-01-27T13:40:55.822Z,9.10
2019-01-27T13:43:27.239Z,9.00
2019-01-27T13:45:58.997Z,8.80
2019-01-27T13:48:32.232Z,8.60
2019-01-27T13:51:06.803Z,8.40
2019-01-27T13:53:59.553Z,8.20
2019-01-27T13:56:31.710Z,8.00
2019-01-27T13:59:06.437Z,8.00
2019-01-27T14:01:38.992Z,8.00
2019-01-27T14:04:15.859Z,7.90
2019-01-27T14:06:58.871Z,8.00
2019-01-27T14:09:31.714Z,7.90
2019-01-27T14:12:02.721Z,7.90
2019-01-27T14:14:37.344Z,7.90
2019-01-27T14:17:08.110Z,7.80
2019-01-27T14:19:50.034Z,7.80
2019-01-27T14:22:28.275Z,7.70
2019-01-27T14:25:01.229Z,7.60
2019-01-27T14:27:36.430Z,7.60
2019-01-27T14:30:16.962Z,7.50
2019-01-27T14:32:49.019Z,7.50
2019-01-27T14:35:21.906Z,7.40
2019-01-27T14:37:55.199Z,7.30
2019-01-27T14:40:27.866Z,7.30
2019-01-27T14:43:03.293Z,7.10
2019-01-27T14:45:38.780Z,7.00
2019-01-27T14:48:12.824Z,6.70
2019-01-27T14:50:47.286Z,6.60
2019-01-27T14:53:17.650Z,6.50
2019-01-27T14:55:51.134Z,6.50
2019-01-27T14:58:21.582Z,6.40
2019-01-27T15:00:52.922Z,6.30
2019-01-27T15:03:32.289Z,6.20
2019-01-27T15:06:05.914Z,6.20
2019-01-27T15:08:37.572Z,6.20
2019-01-27T15:11:13.426Z,6.10
2019-01-27T15:13:52.101Z,6.00
2019-01-27T15:16:31.282Z,6.00
2019-01-27T15:19:03.332Z,6.00
2019-01-27T15:21:34.472Z,6.00
2019-01-27T15:24:12.137Z,6.00
2019-01-27T15:27:04.014Z,6.00
2019-01-27T15:29:38.605Z,6.00
2019-01-27T15:32:12.120Z,6.00
2019-01-27T15:34:43.634Z,6.00
2019-01-27T15:37:22.736Z,6.00
2019-01-27T15:39:57.783Z,6.00
2019-01-27T15:42:33.929Z,5.90
2019-01-27T15:45:18.758Z,5.90
2019-01-27T15:47:55.026Z,5.80
2019-01-27T15:50:37.599Z,5.90
2019-01-27T15:53:11.789Z,5.50
2019-01-27T15:55:45.623Z,5.30
2019-01-27T15:58:22.646Z,5.20
2019-01-27T16:00:57.780Z,5.20
2019-01-27T16:03:33.701Z,5.10
2019-01-27T16:06:13.706Z,5.00
2019-01-27T16:08:48.311Z,5.00
2019-01-27T16:11:33.310Z,5.00
2019-01-27T16:14:10.980Z,5.00
2019-01-27T16:16:43.637Z,5.00
2019-01-27T16:19:26.209Z,5.00
2019-01-27T16:21:59.932Z,5.10
2019-01-27T16:24:43.907Z,5.20
2019-01-27T16:27:30.233Z,5.30
2019-01-27T16:30:25.146Z,5.30
2019-01-27T16:33:14.099Z,5.30
2019-01-27T16:36:03.271Z,5.20
2019-01-27T16:38:36.928Z,5.20
2019-01-27T16:41:28.434Z,5.10
2019-01-27T16:44:02.917Z,5.10
2019-01-27T16:46:37.944Z,5.10
2019-01-27T16:49:10.808Z,5.10
2019-01-27T16:51:49.107Z,5.10
2019-01-27T16:54:22.604Z,5.10
2019-01-27T16:57:08.694Z,5.20
2019-01-27T16:59:43.807Z,5.10
2019-01-27T17:02:43.522Z,5.20
2019-01-27T17:05:32.986Z,5.20
2019-01-27T17:08:21.596Z,5.20
2019-01-27T17:10:57.749Z,5.30
2019-01-27T17:13:36.859Z,5.20
2019-01-27T17:16:13.355Z,5.20
2019-01-27T17:19:09.109Z,5.30
2019-01-27T17:21:45.348Z,5.40
2019-01-27T17:24:20.882Z,5.50
2019-01-27T17:26:58.681Z,5.50
2019-01-27T17:29:32.400Z,5.50
2019-01-27T17:32:17.044Z,5.40
2019-01-27T17:34:55.117Z,5.40
2019-01-27T17:37:43.673Z,5.40
2019-01-27T17:40:18.059Z,5.50
2019-01-27T17:42:52.124Z,5.50
2019-01-27T17:45:24.214Z,5.40
2019-01-27T17:48:12.877Z,5.50
2019-01-27T17:50:49.438Z,5.40
2019-01-27T17:53:29.598Z,5.30
2019-01-27T17:56:05.460Z,5.30
2019-01-27T17:58:56.541Z,5.50
2019-01-27T18:01:51.672Z,5.40
2019-01-27T18:04:53.029Z,5.50
2019-01-27T18:07:49.791Z,5.50
2019-01-27T18:10:48.919Z,5.40
2019-01-27T18:13:52.100Z,5.50
2019-01-27T18:16:37.977Z,5.40
2019-01-27T18:19:27.440Z,5.40
2019-01-27T18:22:12.578Z,5.30
2019-01-27T18:24:49.587Z,5.30
2019-01-27T18:27:27.640Z,5.20
2019-01-27T18:30:03.572Z,5.30
2019-01-27T18:32:56.406Z,5.30
2019-01-27T18:35:29.747Z,5.30
2019-01-27T18:38:09.833Z,5.30
2019-01-27T18:40:42.549Z,5.20
2019-01-27T18:43:35.848Z,5.20
2019-01-27T18:46:12.500Z,5.20
2019-01-27T18:48:44.277Z,5.20
2019-01-27T18:51:15.768Z,5.30
2019-01-27T18:54:17.668Z,5.40
2019-01-27T18:57:11.344Z,5.40
2019-01-27T19:00:31.440Z,5.50
2019-01-27T19:03:31.683Z,5.60
2019-01-27T19:06:38.459Z,5.60
2019-01-27T19:09:28.837Z,5.50
2019-01-27T19:12:23.925Z,5.40
2019-01-27T19:15:33.543Z,5.40
2019-01-27T19:18:15.062Z,5.40
2019-01-27T19:21:12.003Z,5.40
2019-01-27T19:24:20.370Z,5.30
2019-01-27T19:27:29.020Z,5.20
2019-01-27T19:30:27.983Z,5.20
2019-01-27T19:33:24.259Z,5.20
2019-01-27T19:36:16.590Z,5.20
2019-01-27T19:39:06.572Z,5.10
2019-01-27T19:41:47.517Z,5.10
2019-01-27T19:44:39.815Z,5.10
2019-01-27T19:47:36.248Z,5.20
2019-01-27T19:50:28.065Z,5.10
2019-01-27T19:53:36.258Z,5.10
2019-01-27T19:56:33.275Z,5.10
2019-01-27T19:59:36.454Z,5.20
2019-01-27T20:02:35.110Z,5.30
2019-01-27T20:05:36.732Z,5.10
2019-01-27T20:08:32.229Z,5.00
2019-01-27T20:11:18.227Z,5.00
2019-01-27T20:14:18.927Z,4.90
2019-01-27T20:17:09.521Z,5.00
2019-01-27T20:20:14.198Z,5.00
2019-01-27T20:23:06.741Z,5.00
2019-01-27T20:25:56.212Z,5.00
2019-01-27T20:28:55.782Z,5.00
2019-01-27T20:32:06.359Z,5.00
2019-01-27T20:34:56.946Z,5.00
2019-01-27T20:37:59.418Z,5.00
2019-01-27T20:40:53.656Z,5.00
2019-01-27T20:43:42.151Z,5.00
2019-01-27T20:46:39.881Z,5.00
2019-01-27T20:49:44.543Z,5.00
2019-01-27T20:52:40.296Z,5.00
2019-01-27T20:55:52.909Z,5.00
2019-01-27T20:58:35.853Z,5.10
2019-01-27T21:01:31.922Z,5.00
2019-01-27T21:04:24.064Z,5.00
2019-01-27T21:07:19.342Z,5.00
2019-01-27T21:10:12.366Z,5.00
2019-01-27T21:12:59.827Z,4.90
2019-01-27T21:15:58.473Z,5.10
2019-01-27T21:18:43.613Z,5.00
2019-01-27T21:21:20.207Z,5.00
2019-01-27T21:24:06.701Z,4.90
2019-01-27T21:26:39.815Z,5.00
2019-01-27T21:29:19.265Z,5.00
2019-01-27T21:31:56.913Z,4.90
2019-01-27T21:34:48.456Z,4.80
2019-01-27T21:37:30.915Z,4.70
2019-01-27T21:40:08.916Z,4.80
2019-01-27T21:42:47.523Z,4.80
2019-01-27T21:45:28.712Z,4.80
2019-01-27T21:48:08.200Z,4.80
2019-01-27T21:50:42.939Z,4.90
2019-01-27T21:53:24.194Z,4.90
2019-01-27T21:55:55.757Z,5.00
2019-01-27T21:58:41.270Z,5.00
2019-01-27T22:01:13.296Z,5.10
2019-01-27T22:03:51.361Z,5.10
2019-01-27T22:06:22.964Z,5.20
2019-01-27T22:08:58.728Z,4.90
2019-01-27T22:11:31.509Z,4.80
2019-01-27T22:14:02.944Z,4.60
2019-01-27T22:16:36.670Z,4.60
2019-01-27T22:19:14.147Z,4.50
2019-01-27T22:21:48.248Z,4.60
2019-01-27T22:24:22.958Z,4.60
2019-01-27T22:27:02.584Z,4.60
2019-01-27T22:29:36.009Z,4.60
2019-01-27T22:32:12.943Z,4.70
2019-01-27T22:34:57.369Z,4.70
2019-01-27T22:37:30.008Z,4.80
2019-01-27T22:40:04.889Z,4.80
2019-01-27T22:42:39.548Z,4.60
2019-01-27T22:45:17.483Z,4.60
2019-01-27T22:47:47.736Z,4.60
2019-01-27T22:50:19.074Z,4.50
2019-01-27T22:52:53.039Z,4.50
2019-01-27T22:55:26.547Z,4.50
2019-01-27T22:57:58.502Z,4.50
2019-01-27T23:01:06.072Z,4.50
2019-01-27T23:03:42.206Z,4.50
2019-01-27T23:06:15.795Z,4.50
2019-01-27T23:08:48.033Z,4.50
2019-01-27T23:11:26.939Z,4.60
2019-01-27T23:14:03.615Z,4.60
2019-01-27T23:16:37.223Z,4.60
2019-01-27T23:19:08.237Z,4.60
2019-01-27T23:21:39.299Z,4.60
2019-01-27T23:24:13.891Z,4.50
2019-01-27T23:26:45.895Z,4.60
2019-01-27T23:29:21.190Z,4.60
2019-01-27T23:32:00.927Z,4.60
2019-01-27T23:34:37.366Z,4.60
2019-01-27T23:37:15.454Z,4.60
2019-01-27T23:40:01.640Z,4.60
2019-01-27T23:42:37.233Z,4.60
2019-01-27T23:45:15.005Z,4.60
2019-01-27T23:47:48.065Z,4.60
2019-01-27T23:50:23.143Z,4.70
2019-01-27T23:52:54.470Z,4.60
2019-01-27T23:55:34.252Z,4.70
2019-01-27T23:58:11.903Z,4.70
